Time;durP1;ratioP1;P1;durP2;ratioP2;P2;SDS_P1;SDS_P2;PMS_P1;PMS_P2;Temp;Humidity;BMP_temperature;BMP_pressure;BME280_temperature;BME280_humidity;BME280_pressure;Samples;Min_cycle;Max_cycle;Signal;HPM_P1;HPM_P2
2023/07/03 00:00:25;;;;;;;11.10;4.13;;;18.90;71.10;;;;;;2073903;28;20030;-71
2023/07/03 00:01:26;;;;;;;13.18;3.85;;;18.90;71.00;;;;;;2075982;28;20362;-71
2023/07/03 00:02:27;;;;;;;14.52;4.47;;;18.90;71.00;;;;;;2075755;28;20034;-71
2023/07/03 00:03:27;;;;;;;11.38;4.25;;;18.90;71.00;;;;;;2075476;28;20025;-71
2023/07/03 00:04:28;;;;;;;18.60;4.85;;;18.80;70.90;;;;;;2074209;28;20021;-71
2023/07/03 00:05:30;;;;;;;13.95;4.30;;;18.90;71.00;;;;;;2072823;28;20018;-71
2023/07/03 00:06:30;;;;;;;10.73;3.78;;;18.80;70.90;;;;;;2074244;28;20029;-71
2023/07/03 00:07:31;;;;;;;11.15;4.32;;;18.80;70.90;;;;;;2073261;28;20036;-71
2023/07/03 00:08:31;;;;;;;13.05;3.97;;;18.80;70.90;;;;;;2076209;28;20029;-71
2023/07/03 00:09:32;;;;;;;11.15;3.72;;;18.80;71.10;;;;;;2073976;28;20091;-71
2023/07/03 00:10:33;;;;;;;14.55;4.38;;;18.80;71.00;;;;;;2073779;28;20018;-71
2023/07/03 00:11:33;;;;;;;13.80;3.78;;;18.80;71.20;;;;;;2076022;28;20076;-71
2023/07/03 00:12:34;;;;;;;16.88;4.85;;;18.70;71.10;;;;;;2077161;28;20104;-71
2023/07/03 00:13:35;;;;;;;12.80;4.28;;;18.70;71.10;;;;;;2075582;28;20030;-71
2023/07/03 00:14:36;;;;;;;16.00;5.47;;;18.70;71.00;;;;;;2075444;28;20032;-71
2023/07/03 00:15:37;;;;;;;10.93;3.97;;;18.70;71.10;;;;;;2074250;28;20040;-71
2023/07/03 00:16:37;;;;;;;13.10;4.22;;;18.70;71.20;;;;;;2075634;28;20491;-71
2023/07/03 00:17:38;;;;;;;14.52;4.65;;;18.70;71.30;;;;;;2074819;28;20025;-71
2023/07/03 00:18:38;;;;;;;21.83;4.00;;;18.70;71.30;;;;;;2075366;28;20096;-71
2023/07/03 00:19:39;;;;;;;10.05;4.10;;;18.70;71.20;;;;;;2075424;28;20033;-71
2023/07/03 00:20:39;;;;;;;16.30;4.45;;;18.70;71.20;;;;;;2074803;28;20061;-71
2023/07/03 00:21:43;;;;;;;15.98;4.75;;;18.70;71.30;;;;;;2075482;28;20038;-71
2023/07/03 00:22:46;;;;;;;12.88;4.55;;;18.70;71.30;;;;;;2073936;28;20065;-71
2023/07/03 00:23:47;;;;;;;12.77;4.15;;;18.70;71.30;;;;;;2072569;28;20026;-71
2023/07/03 00:24:47;;;;;;;11.68;4.07;;;18.70;71.20;;;;;;2074003;28;20041;-71
2023/07/03 00:25:48;;;;;;;12.65;4.07;;;18.70;72.00;;;;;;2074647;28;20056;-71
2023/07/03 00:26:49;;;;;;;11.68;4.22;;;18.70;71.30;;;;;;2076320;28;20017;-71
2023/07/03 00:27:49;;;;;;;12.05;4.45;;;18.70;71.30;;;;;;2076229;28;20445;-71
2023/07/03 00:28:50;;;;;;;16.88;4.85;;;18.70;71.30;;;;;;2075466;28;20179;-71
2023/07/03 00:29:51;;;;;;;12.93;3.78;;;18.60;71.20;;;;;;2074963;28;20014;-71
2023/07/03 00:30:51;;;;;;;8.52;3.90;;;18.60;71.20;;;;;;2074792;28;20025;-71
2023/07/03 00:31:52;;;;;;;12.80;4.68;;;18.60;71.20;;;;;;2076026;28;20024;-71
2023/07/03 00:32:52;;;;;;;11.85;4.38;;;18.60;71.30;;;;;;2075611;28;20061;-71
2023/07/03 00:33:53;;;;;;;14.52;3.83;;;18.60;71.30;;;;;;2074151;28;20129;-71
2023/07/03 00:34:54;;;;;;;14.15;4.50;;;18.60;71.30;;;;;;2075048;28;20057;-71
2023/07/03 00:35:55;;;;;;;12.23;4.38;;;18.60;71.40;;;;;;2075706;28;20485;-71
2023/07/03 00:36:55;;;;;;;14.23;4.63;;;18.60;71.30;;;;;;2075370;28;20120;-71
2023/07/03 00:37:56;;;;;;;14.35;5.18;;;18.60;71.50;;;;;;2073615;28;20030;-71
2023/07/03 00:38:58;;;;;;;13.13;4.03;;;18.50;71.60;;;;;;2074076;28;21288;-71
2023/07/03 00:39:59;;;;;;;17.83;4.45;;;18.50;71.70;;;;;;2075811;28;20021;-71
2023/07/03 00:41:00;;;;;;;11.77;4.53;;;18.50;71.70;;;;;;2075560;28;20375;-71
2023/07/03 00:42:00;;;;;;;9.95;4.22;;;18.50;71.80;;;;;;2076819;28;20082;-71
2023/07/03 00:43:01;;;;;;;12.52;4.47;;;18.50;71.90;;;;;;2075716;28;20100;-71
2023/07/03 00:44:01;;;;;;;11.45;3.65;;;18.50;72.00;;;;;;2075994;28;20454;-71
2023/07/03 00:45:07;;;;;;;11.60;4.18;;;18.40;72.00;;;;;;2075043;28;20030;-71
2023/07/03 00:46:09;;;;;;;11.77;3.85;;;18.40;72.10;;;;;;2074995;28;20045;-71
2023/07/03 00:47:11;;;;;;;12.48;4.88;;;18.40;72.00;;;;;;2075088;28;20025;-71
2023/07/03 00:48:11;;;;;;;23.38;5.28;;;18.40;72.10;;;;;;2074898;28;20026;-71
2023/07/03 00:49:12;;;;;;;12.48;4.07;;;18.40;72.20;;;;;;2076165;28;20089;-71
2023/07/03 00:50:13;;;;;;;14.57;4.50;;;18.40;72.30;;;;;;2076379;28;20485;-71
2023/07/03 00:51:15;;;;;;;10.38;4.35;;;18.40;72.30;;;;;;2074421;28;20540;-71
2023/07/03 00:52:15;;;;;;;14.88;3.90;;;18.40;72.40;;;;;;2075019;28;20025;-71
2023/07/03 00:53:16;;;;;;;14.77;4.72;;;18.40;72.60;;;;;;2077195;28;20030;-71
2023/07/03 00:54:17;;;;;;;17.95;4.80;;;18.30;72.50;;;;;;2073917;28;20506;-71
2023/07/03 00:55:17;;;;;;;11.70;4.43;;;18.40;72.70;;;;;;2074594;28;20038;-71
2023/07/03 00:56:18;;;;;;;16.77;4.57;;;18.30;72.80;;;;;;2075098;28;20108;-71
2023/07/03 00:57:19;;;;;;;14.32;4.15;;;18.40;72.80;;;;;;2074474;28;20159;-72
2023/07/03 00:58:19;;;;;;;14.55;5.18;;;18.30;72.80;;;;;;2073836;28;20026;-71
2023/07/03 00:59:20;;;;;;;8.65;3.92;;;18.30;72.80;;;;;;2075385;28;20034;-71
2023/07/03 01:00:25;;;;;;;11.32;4.45;;;18.20;72.80;;;;;;2074161;28;20113;-71
2023/07/03 01:01:37;;;;;;;12.45;4.53;;;18.30;73.20;;;;;;2075675;28;20040;-71
2023/07/03 01:02:44;;;;;;;12.52;4.22;;;18.20;73.40;;;;;;2073855;28;20034;-71
2023/07/03 01:03:53;;;;;;;12.23;4.30;;;18.20;73.40;;;;;;2074030;28;20129;-71
2023/07/03 01:05:05;;;;;;;13.65;4.07;;;18.20;73.60;;;;;;2076176;28;20026;-71
2023/07/03 01:06:09;;;;;;;13.95;5.22;;;18.10;73.70;;;;;;2076442;28;20033;-71
2023/07/03 01:07:16;;;;;;;9.80;4.18;;;18.10;73.70;;;;;;2074816;28;20026;-71
2023/07/03 01:08:16;;;;;;;8.88;3.60;;;18.10;73.90;;;;;;2077400;28;20042;-71
2023/07/03 01:09:21;;;;;;;10.82;4.72;;;18.10;74.00;;;;;;2076629;28;20030;-71
2023/07/03 01:10:23;;;;;;;15.38;4.88;;;18.10;74.30;;;;;;2076151;28;20022;-71
2023/07/03 01:11:25;;;;;;;13.32;4.38;;;18.00;74.30;;;;;;2077882;28;20108;-71
2023/07/03 01:12:29;;;;;;;13.52;4.57;;;18.00;74.40;;;;;;2076896;28;20850;-71
2023/07/03 01:13:33;;;;;;;11.75;3.83;;;18.00;74.70;;;;;;2077224;28;20037;-71
2023/07/03 01:14:35;;;;;;;12.00;4.40;;;18.00;74.70;;;;;;2076803;28;20481;-71
2023/07/03 01:15:38;;;;;;;9.50;3.67;;;18.00;74.70;;;;;;2077713;28;20026;-71
2023/07/03 01:16:39;;;;;;;15.45;4.40;;;18.00;74.70;;;;;;2076493;28;20026;-71
2023/07/03 01:17:41;;;;;;;16.55;5.13;;;18.00;74.80;;;;;;2077211;28;20021;-71
2023/07/03 01:18:44;;;;;;;14.15;4.30;;;18.00;74.80;;;;;;2075956;28;20028;-71
2023/07/03 01:19:47;;;;;;;12.18;4.10;;;17.90;75.00;;;;;;2074759;28;20033;-71
2023/07/03 01:21:02;;;;;;;15.45;5.10;;;17.90;75.10;;;;;;2075627;28;20034;-71
2023/07/03 01:22:08;;;;;;;13.18;4.50;;;17.90;75.40;;;;;;2075135;28;20030;-71
2023/07/03 01:23:30;;;;;;;12.07;4.30;;;17.90;75.50;;;;;;2074713;28;20026;-71
2023/07/03 01:24:41;;;;;;;14.73;5.03;;;17.80;75.40;;;;;;2076411;28;20025;-71
2023/07/03 01:25:43;;;;;;;14.95;4.13;;;17.80;75.60;;;;;;2076064;28;20773;-71
2023/07/03 01:26:45;;;;;;;9.60;4.57;;;17.80;75.70;;;;;;2077485;28;20096;-71
2023/07/03 01:27:49;;;;;;;12.90;4.47;;;17.80;75.80;;;;;;2075555;28;20036;-71
2023/07/03 01:28:55;;;;;;;18.92;4.80;;;17.80;76.00;;;;;;2075059;28;20014;-71
2023/07/03 01:29:57;;;;;;;18.75;4.90;;;17.80;76.20;;;;;;2076370;28;20080;-71
2023/07/03 01:30:59;;;;;;;13.95;4.70;;;17.80;76.30;;;;;;2076634;28;20112;-71
2023/07/03 01:32:03;;;;;;;14.02;4.10;;;17.70;76.50;;;;;;2077222;28;20033;-71
2023/07/03 01:33:06;;;;;;;13.68;4.40;;;17.70;76.60;;;;;;2076226;28;20026;-71
2023/07/03 01:34:08;;;;;;;12.40;4.40;;;17.70;76.60;;;;;;2079008;28;20064;-71
2023/07/03 01:35:11;;;;;;;17.70;4.53;;;17.70;76.80;;;;;;2078638;28;20022;-71
2023/07/03 01:36:12;;;;;;;13.82;4.38;;;17.70;77.10;;;;;;2076964;28;20025;-71
2023/07/03 01:37:16;;;;;;;16.42;5.63;;;17.70;77.40;;;;;;2077131;28;20485;-71
2023/07/03 01:38:19;;;;;;;12.98;3.88;;;17.60;77.50;;;;;;2076109;28;20035;-71
2023/07/03 01:39:20;;;;;;;14.60;4.68;;;17.60;77.50;;;;;;2077007;28;20371;-71
2023/07/03 01:40:23;;;;;;;12.63;3.80;;;17.60;77.40;;;;;;2075484;28;20131;-71
2023/07/03 01:41:26;;;;;;;12.48;4.57;;;17.60;77.70;;;;;;2079130;28;20084;-71
2023/07/03 01:42:29;;;;;;;12.90;4.28;;;17.60;77.90;;;;;;2079030;28;20564;-71
2023/07/03 01:43:30;;;;;;;12.18;4.63;;;17.60;78.20;;;;;;2076339;28;20025;-71
2023/07/03 01:44:31;;;;;;;13.57;3.88;;;17.60;77.90;;;;;;2076933;28;20036;-71
2023/07/03 01:45:34;;;;;;;16.80;4.45;;;17.60;78.40;;;;;;2075917;28;20052;-71
2023/07/03 01:46:34;;;;;;;15.40;4.07;;;17.60;78.60;;;;;;2074933;28;20022;-71
2023/07/03 01:47:36;;;;;;;12.75;4.13;;;17.60;78.60;;;;;;2077193;28;20093;-71
2023/07/03 01:48:36;;;;;;;12.05;4.78;;;17.60;78.90;;;;;;2077931;28;20020;-71
2023/07/03 01:49:37;;;;;;;14.43;4.50;;;17.60;79.00;;;;;;2076306;28;20033;-71
2023/07/03 01:50:38;;;;;;;11.55;4.20;;;17.60;79.20;;;;;;2074422;28;20040;-71
2023/07/03 01:52:03;;;;;;;12.43;4.25;;;17.60;79.40;;;;;;2076804;28;20026;-71
2023/07/03 01:53:11;;;;;;;14.77;5.07;;;17.50;79.90;;;;;;2076788;28;20033;-71
2023/07/03 01:54:18;;;;;;;12.75;3.88;;;17.50;79.80;;;;;;2076476;28;20080;-71
2023/07/03 01:55:41;;;;;;;12.93;3.80;;;17.50;80.00;;;;;;2077487;28;20025;-71
2023/07/03 01:56:44;;;;;;;13.35;4.55;;;17.50;80.60;;;;;;2075679;28;20254;-71
2023/07/03 01:57:59;;;;;;;14.40;4.28;;;17.50;80.60;;;;;;2076430;28;20022;-71
2023/07/03 01:59:07;;;;;;;13.77;4.20;;;17.50;80.70;;;;;;2076014;28;20109;-71
2023/07/03 02:00:14;;;;;;;12.85;4.47;;;17.40;80.30;;;;;;2074744;28;20504;-71
2023/07/03 02:01:37;;;;;;;11.10;4.03;;;17.40;80.90;;;;;;2075199;28;20036;-71
2023/07/03 02:02:39;;;;;;;13.75;5.15;;;17.40;81.00;;;;;;2076502;28;20137;-71
2023/07/03 02:03:47;;;;;;;14.35;4.53;;;17.40;81.30;;;;;;2075919;28;20092;-71
2023/07/03 02:04:57;;;;;;;11.95;4.45;;;17.40;81.70;;;;;;2075809;28;20026;-71
2023/07/03 02:06:02;;;;;;;11.88;3.92;;;17.40;81.80;;;;;;2074144;28;20095;-71
2023/07/03 02:07:05;;;;;;;15.30;4.22;;;17.40;82.20;;;;;;2074550;28;20113;-71
2023/07/03 02:08:09;;;;;;;11.45;4.15;;;17.40;81.80;;;;;;2075528;28;20481;-71
2023/07/03 02:09:10;;;;;;;14.52;5.10;;;17.40;81.90;;;;;;2075165;28;20843;-71
2023/07/03 02:10:11;;;;;;;15.73;5.38;;;17.40;82.20;;;;;;2073636;28;20029;-71
2023/07/03 02:11:17;;;;;;;13.43;5.07;;;17.40;82.50;;;;;;2076527;28;20132;-71
2023/07/03 02:12:18;;;;;;;13.93;4.20;;;17.40;82.60;;;;;;2078555;28;20582;-71
2023/07/03 02:13:18;;;;;;;14.73;4.30;;;17.40;82.80;;;;;;2078971;28;20524;-71
2023/07/03 02:14:19;;;;;;;14.35;5.00;;;17.40;82.80;;;;;;2074706;28;20393;-71
2023/07/03 02:15:19;;;;;;;14.30;4.55;;;17.40;82.80;;;;;;2075486;28;20588;-71
2023/07/03 02:16:20;;;;;;;14.70;4.43;;;17.40;83.00;;;;;;2075803;28;20021;-71
2023/07/03 02:17:21;;;;;;;11.43;4.60;;;17.40;82.90;;;;;;2075683;28;20021;-71
2023/07/03 02:18:23;;;;;;;12.23;4.15;;;17.40;83.00;;;;;;2076942;28;20386;-71
2023/07/03 02:19:28;;;;;;;15.15;4.57;;;17.40;83.10;;;;;;2075548;28;20481;-71
2023/07/03 02:20:29;;;;;;;13.68;5.00;;;17.40;83.30;;;;;;2075420;28;20489;-71
2023/07/03 02:21:29;;;;;;;13.73;4.32;;;17.40;83.50;;;;;;2075220;28;20670;-71
2023/07/03 02:22:30;;;;;;;15.98;4.20;;;17.40;83.90;;;;;;2076015;28;20030;-71
2023/07/03 02:23:31;;;;;;;14.35;4.82;;;17.40;84.40;;;;;;2073601;28;20014;-71
2023/07/03 02:24:32;;;;;;;13.68;5.07;;;17.40;84.30;;;;;;2074677;28;20825;-71
2023/07/03 02:25:32;;;;;;;17.70;4.75;;;17.40;84.80;;;;;;2075579;28;20048;-71
2023/07/03 02:26:33;;;;;;;12.82;4.30;;;17.40;84.80;;;;;;2075486;28;20021;-71
2023/07/03 02:27:33;;;;;;;13.70;4.47;;;17.30;84.80;;;;;;2075998;28;20496;-71
2023/07/03 02:28:34;;;;;;;14.70;4.97;;;17.40;85.20;;;;;;2076061;28;20068;-71
2023/07/03 02:29:35;;;;;;;11.90;4.30;;;17.30;85.10;;;;;;2075332;28;20044;-71
2023/07/03 02:30:35;;;;;;;15.93;4.95;;;17.30;85.00;;;;;;2075224;28;20018;-71
2023/07/03 02:31:36;;;;;;;11.05;4.03;;;17.30;85.50;;;;;;2075452;28;20937;-71
2023/07/03 02:32:38;;;;;;;13.30;4.38;;;17.30;85.50;;;;;;2075387;28;20034;-71
2023/07/03 02:33:39;;;;;;;11.43;4.28;;;17.30;85.40;;;;;;2075277;28;20040;-71
2023/07/03 02:34:39;;;;;;;14.88;4.15;;;17.30;85.80;;;;;;2074225;28;20022;-71
2023/07/03 02:35:41;;;;;;;17.48;4.85;;;17.30;85.90;;;;;;2076588;28;20037;-71
2023/07/03 02:36:41;;;;;;;11.32;5.05;;;17.30;85.80;;;;;;2075770;28;20523;-71
2023/07/03 02:37:42;;;;;;;16.27;4.80;;;17.40;86.20;;;;;;2076691;28;20029;-71
2023/07/03 02:38:42;;;;;;;13.82;4.20;;;17.30;86.20;;;;;;2075298;28;20103;-71
2023/07/03 02:39:43;;;;;;;19.98;4.63;;;17.30;86.40;;;;;;2075090;28;20506;-71
2023/07/03 02:40:44;;;;;;;13.75;4.82;;;17.30;86.30;;;;;;2077780;28;20065;-71
2023/07/03 02:41:44;;;;;;;16.27;4.82;;;17.40;86.70;;;;;;2078994;28;20044;-71
2023/07/03 02:42:45;;;;;;;11.90;3.72;;;17.30;86.90;;;;;;2073946;28;20486;-71
2023/07/03 02:43:45;;;;;;;17.52;4.90;;;17.30;86.60;;;;;;2075662;28;20029;-71
2023/07/03 02:44:46;;;;;;;9.65;4.03;;;17.30;86.80;;;;;;2077136;28;20749;-71
2023/07/03 02:45:46;;;;;;;13.15;4.95;;;17.40;86.20;;;;;;2074089;28;20751;-71
2023/07/03 02:46:47;;;;;;;18.35;5.03;;;17.30;86.60;;;;;;2075800;28;20071;-71
2023/07/03 02:47:47;;;;;;;13.63;4.90;;;17.30;87.10;;;;;;2076573;28;20033;-71
2023/07/03 02:48:48;;;;;;;14.80;4.60;;;17.30;87.50;;;;;;2076580;28;20021;-71
2023/07/03 02:49:48;;;;;;;14.25;4.15;;;17.30;87.90;;;;;;2076667;28;20029;-71
2023/07/03 02:50:52;;;;;;;13.80;4.63;;;17.30;87.70;;;;;;2075301;28;20025;-71
2023/07/03 02:51:53;;;;;;;12.45;4.57;;;17.40;88.40;;;;;;2074022;28;20026;-71
2023/07/03 02:52:53;;;;;;;17.48;4.65;;;17.30;88.00;;;;;;2079006;28;20113;-71
2023/07/03 02:53:55;;;;;;;16.80;4.43;;;17.30;88.30;;;;;;2075084;28;20032;-71
2023/07/03 02:54:55;;;;;;;13.32;4.63;;;17.30;88.70;;;;;;2075196;28;20095;-71
2023/07/03 02:55:56;;;;;;;15.55;5.03;;;17.30;89.00;;;;;;2076950;28;20595;-71
2023/07/03 02:56:56;;;;;;;15.48;4.80;;;17.30;89.30;;;;;;2076114;28;20033;-71
2023/07/03 02:57:58;;;;;;;17.48;4.85;;;17.30;89.20;;;;;;2077286;28;20037;-71
2023/07/03 02:58:58;;;;;;;14.23;4.65;;;17.30;89.50;;;;;;2074700;28;20473;-71
2023/07/03 02:59:59;;;;;;;17.98;3.88;;;17.30;89.70;;;;;;2074665;28;20056;-71
2023/07/03 03:01:01;;;;;;;15.75;4.68;;;17.30;89.90;;;;;;2076129;28;20033;-71
2023/07/03 03:02:01;;;;;;;13.48;4.35;;;17.30;90.10;;;;;;2074072;28;20507;-71
2023/07/03 03:03:02;;;;;;;15.75;5.03;;;17.30;90.00;;;;;;2075599;28;20458;-71
2023/07/03 03:04:02;;;;;;;16.60;5.03;;;17.30;90.20;;;;;;2069261;28;20164;-71
2023/07/03 03:05:03;;;;;;;24.52;5.22;;;17.30;90.30;;;;;;2074863;28;20526;-71
2023/07/03 03:06:04;;;;;;;15.27;4.13;;;17.30;90.50;;;;;;2076889;28;20017;-71
2023/07/03 03:07:04;;;;;;;18.85;4.95;;;17.30;90.60;;;;;;2076122;28;20049;-71
2023/07/03 03:08:05;;;;;;;13.93;4.07;;;17.20;91.10;;;;;;2075370;28;20029;-71
2023/07/03 03:09:05;;;;;;;18.60;4.85;;;17.20;90.60;;;;;;2075654;28;20018;-71
2023/07/03 03:10:07;;;;;;;19.38;6.00;;;17.20;90.90;;;;;;2074198;28;20048;-71
2023/07/03 03:11:09;;;;;;;13.05;4.90;;;17.20;91.00;;;;;;2076436;28;20478;-71
2023/07/03 03:12:10;;;;;;;16.25;5.07;;;17.20;91.10;;;;;;2075217;28;20040;-71
2023/07/03 03:13:10;;;;;;;12.43;4.18;;;17.20;91.10;;;;;;2075142;28;20025;-71
2023/07/03 03:14:12;;;;;;;15.55;4.95;;;17.20;91.30;;;;;;2076096;28;20034;-71
2023/07/03 03:15:13;;;;;;;18.10;4.82;;;17.20;91.30;;;;;;2075297;28;20021;-71
2023/07/03 03:16:13;;;;;;;21.52;5.32;;;17.20;91.50;;;;;;2076835;28;20028;-71
2023/07/03 03:17:14;;;;;;;12.68;4.38;;;17.20;91.60;;;;;;2076270;28;20573;-71
2023/07/03 03:18:14;;;;;;;17.83;4.82;;;17.10;91.50;;;;;;2074852;28;20053;-71
2023/07/03 03:19:15;;;;;;;12.63;4.88;;;17.10;91.70;;;;;;2076339;28;20109;-71
2023/07/03 03:20:16;;;;;;;14.75;5.35;;;17.10;91.80;;;;;;2074212;28;20033;-71
2023/07/03 03:21:16;;;;;;;15.30;5.15;;;17.10;91.90;;;;;;2075161;28;20030;-71
2023/07/03 03:22:17;;;;;;;16.77;5.80;;;17.10;92.10;;;;;;2075220;28;20379;-71
2023/07/03 03:23:17;;;;;;;15.27;5.00;;;17.10;92.30;;;;;;2074291;28;20508;-71
2023/07/03 03:24:18;;;;;;;16.95;4.63;;;17.10;92.40;;;;;;2074281;28;20029;-71
2023/07/03 03:25:19;;;;;;;15.63;4.70;;;17.10;92.40;;;;;;2075091;28;20024;-71
2023/07/03 03:26:19;;;;;;;17.20;5.35;;;17.10;92.60;;;;;;2073888;28;20038;-71
2023/07/03 03:27:20;;;;;;;17.67;4.57;;;17.10;92.80;;;;;;2073581;28;20454;-71
2023/07/03 03:28:20;;;;;;;15.38;4.40;;;17.10;92.90;;;;;;2075124;28;20034;-71
2023/07/03 03:29:21;;;;;;;18.13;5.18;;;17.10;92.50;;;;;;2072242;28;20029;-71
2023/07/03 03:30:22;;;;;;;18.15;5.22;;;17.10;93.10;;;;;;2073900;28;20036;-71
2023/07/03 03:31:23;;;;;;;16.10;5.20;;;17.10;93.30;;;;;;2074980;28;20510;-71
2023/07/03 03:32:23;;;;;;;16.08;4.85;;;17.10;93.40;;;;;;2075443;28;20030;-71
2023/07/03 03:33:24;;;;;;;16.55;4.80;;;17.00;93.50;;;;;;2075016;28;21000;-71
2023/07/03 03:34:25;;;;;;;17.80;5.30;;;17.10;93.50;;;;;;2073904;28;20461;-71
2023/07/03 03:35:25;;;;;;;16.02;5.20;;;17.00;93.80;;;;;;2075656;28;20036;-71
2023/07/03 03:36:26;;;;;;;16.67;5.28;;;17.00;93.80;;;;;;2075469;28;20371;-71
2023/07/03 03:37:26;;;;;;;17.42;5.13;;;17.00;94.00;;;;;;2075892;28;20079;-71
2023/07/03 03:38:27;;;;;;;14.45;4.55;;;17.00;94.20;;;;;;2075009;28;20025;-71
2023/07/03 03:39:28;;;;;;;21.27;4.88;;;17.00;94.40;;;;;;2074863;28;20030;-71
2023/07/03 03:40:28;;;;;;;14.48;4.85;;;17.00;94.60;;;;;;2074255;28;20057;-71
2023/07/03 03:41:29;;;;;;;12.23;4.20;;;17.00;94.50;;;;;;2074917;28;20036;-71
2023/07/03 03:42:29;;;;;;;17.77;5.35;;;17.00;94.70;;;;;;2074820;28;20030;-71
2023/07/03 03:43:30;;;;;;;14.93;4.80;;;17.00;94.70;;;;;;2075115;28;20053;-71
2023/07/03 03:44:30;;;;;;;17.30;4.97;;;17.00;94.80;;;;;;2076645;28;20037;-71
2023/07/03 03:45:31;;;;;;;22.75;5.88;;;17.00;95.10;;;;;;2076757;28;20025;-71
2023/07/03 03:46:31;;;;;;;16.35;4.95;;;17.00;95.50;;;;;;2075072;28;20048;-71
2023/07/03 03:47:32;;;;;;;19.13;5.03;;;17.00;95.50;;;;;;2073827;28;20029;-71
2023/07/03 03:48:33;;;;;;;17.30;5.38;;;17.00;95.90;;;;;;2076353;28;20033;-71
2023/07/03 03:49:33;;;;;;;22.40;5.40;;;17.00;96.10;;;;;;2075755;28;20215;-71
2023/07/03 03:50:34;;;;;;;13.25;4.28;;;17.00;96.20;;;;;;2074336;28;20071;-71
2023/07/03 03:51:34;;;;;;;14.27;4.57;;;17.00;96.40;;;;;;2074317;28;20550;-71
2023/07/03 03:52:35;;;;;;;17.05;5.28;;;17.00;96.90;;;;;;2075729;28;20487;-71
2023/07/03 03:53:35;;;;;;;18.95;4.88;;;17.00;96.80;;;;;;2076214;28;20060;-71
2023/07/03 03:54:36;;;;;;;16.88;5.22;;;17.00;96.70;;;;;;2075083;28;20026;-71
2023/07/03 03:55:37;;;;;;;16.00;5.03;;;17.00;97.00;;;;;;2075861;28;20022;-71
2023/07/03 03:56:37;;;;;;;18.08;5.72;;;17.00;96.60;;;;;;2075499;28;20111;-71
2023/07/03 03:57:38;;;;;;;15.23;5.32;;;17.00;97.20;;;;;;2075230;28;20022;-71
2023/07/03 03:58:38;;;;;;;17.02;5.28;;;17.00;97.40;;;;;;2074180;28;20096;-71
2023/07/03 03:59:39;;;;;;;17.65;4.95;;;17.00;97.70;;;;;;2074840;28;20022;-71
2023/07/03 04:00:40;;;;;;;17.73;5.13;;;17.00;97.70;;;;;;2075041;28;20041;-71
2023/07/03 04:01:42;;;;;;;12.68;4.38;;;17.00;97.60;;;;;;2076128;28;20037;-71
2023/07/03 04:02:43;;;;;;;20.02;5.18;;;17.00;97.50;;;;;;2077723;28;20442;-71
2023/07/03 04:03:43;;;;;;;16.02;4.97;;;16.90;97.50;;;;;;2076541;28;20029;-71
2023/07/03 04:04:44;;;;;;;15.40;4.68;;;17.00;98.00;;;;;;2074773;28;20653;-71
2023/07/03 04:05:45;;;;;;;14.88;5.18;;;17.00;98.10;;;;;;2076078;28;20045;-71
2023/07/03 04:06:46;;;;;;;17.55;5.53;;;17.00;98.20;;;;;;2075413;28;20033;-71
2023/07/03 04:07:46;;;;;;;18.77;4.85;;;17.00;98.50;;;;;;2075810;28;20125;-71
2023/07/03 04:08:47;;;;;;;17.27;5.13;;;17.00;99.00;;;;;;2074653;28;20034;-71
2023/07/03 04:09:48;;;;;;;16.30;5.00;;;16.90;98.70;;;;;;2075892;28;20052;-71
2023/07/03 04:10:48;;;;;;;19.38;5.93;;;16.90;98.70;;;;;;2074771;28;20104;-71
2023/07/03 04:11:49;;;;;;;16.73;4.93;;;16.90;98.90;;;;;;2075114;28;20022;-71
2023/07/03 04:12:49;;;;;;;22.83;5.50;;;16.90;99.40;;;;;;2075337;28;20026;-71
2023/07/03 04:13:50;;;;;;;18.40;5.53;;;16.90;99.80;;;;;;2076632;28;20389;-71
2023/07/03 04:14:51;;;;;;;20.33;5.63;;;16.90;99.90;;;;;;2075670;28;20477;-71
2023/07/03 04:15:51;;;;;;;17.92;6.07;;;16.90;99.90;;;;;;2075785;28;20128;-71
2023/07/03 04:16:53;;;;;;;16.33;4.93;;;16.90;99.90;;;;;;2075537;28;20189;-71
2023/07/03 04:17:53;;;;;;;16.60;5.03;;;16.90;99.90;;;;;;2075979;28;20029;-71
2023/07/03 04:18:54;;;;;;;15.90;4.82;;;16.90;99.90;;;;;;2075801;28;20057;-71
2023/07/03 04:19:55;;;;;;;17.70;5.65;;;16.90;99.90;;;;;;2074782;28;20038;-71
2023/07/03 04:20:56;;;;;;;17.25;4.68;;;16.90;99.90;;;;;;2076692;28;20410;-71
2023/07/03 04:21:56;;;;;;;17.45;5.13;;;17.00;99.90;;;;;;2076816;28;20314;-71
2023/07/03 04:22:57;;;;;;;19.23;5.38;;;17.00;99.90;;;;;;2074068;28;20033;-71
2023/07/03 04:23:57;;;;;;;20.85;5.65;;;17.20;99.90;;;;;;2074380;28;20052;-71
2023/07/03 04:24:58;;;;;;;18.80;5.10;;;17.30;99.90;;;;;;2074671;28;20018;-71
2023/07/03 04:25:59;;;;;;;18.10;5.47;;;17.40;99.90;;;;;;2074885;28;20105;-71
2023/07/03 04:27:00;;;;;;;15.20;5.30;;;17.50;99.90;;;;;;2078868;28;20065;-71
2023/07/03 04:28:01;;;;;;;17.30;5.50;;;17.60;99.90;;;;;;2077673;28;20025;-71
2023/07/03 04:29:01;;;;;;;20.33;5.55;;;17.60;99.90;;;;;;2076826;28;20049;-71
2023/07/03 04:30:06;;;;;;;17.27;4.82;;;17.70;99.80;;;;;;2072976;28;20179;-71
2023/07/03 04:31:07;;;;;;;20.90;6.05;;;17.70;99.80;;;;;;2074754;28;20029;-71
2023/07/03 04:32:07;;;;;;;13.27;4.55;;;17.60;99.80;;;;;;2074627;28;20137;-71
2023/07/03 04:33:08;;;;;;;18.20;5.50;;;17.60;99.40;;;;;;2072656;28;20410;-71
2023/07/03 04:34:08;;;;;;;19.42;5.55;;;17.60;99.90;;;;;;2075354;28;20088;-71
2023/07/03 04:35:09;;;;;;;10.88;4.47;;;17.60;99.90;;;;;;2074407;28;20021;-71
2023/07/03 04:36:11;;;;;;;14.02;5.00;;;17.50;99.90;;;;;;2073499;28;20118;-71
2023/07/03 04:37:13;;;;;;;18.92;5.65;;;17.60;99.90;;;;;;2073952;28;20739;-71
2023/07/03 04:38:17;;;;;;;15.98;6.22;;;17.60;99.90;;;;;;2075651;28;20026;-71
2023/07/03 04:39:18;;;;;;;20.80;5.85;;;17.60;99.90;;;;;;2076399;28;20029;-71
2023/07/03 04:40:18;;;;;;;17.15;4.90;;;17.60;99.90;;;;;;2073650;28;20025;-71
2023/07/03 04:41:22;;;;;;;18.98;5.35;;;17.70;99.90;;;;;;2076404;28;20076;-71
2023/07/03 04:42:23;;;;;;;21.27;5.55;;;17.70;99.90;;;;;;2074826;28;20028;-71
2023/07/03 04:43:23;;;;;;;15.30;4.57;;;17.80;99.90;;;;;;2078419;28;20033;-71
2023/07/03 04:44:24;;;;;;;17.38;5.80;;;17.80;99.90;;;;;;2074846;28;20045;-71
2023/07/03 04:45:26;;;;;;;16.90;4.90;;;17.80;99.90;;;;;;2076883;28;20064;-71
2023/07/03 04:46:27;;;;;;;19.48;5.60;;;17.90;99.90;;;;;;2077612;28;20030;-71
2023/07/03 04:47:28;;;;;;;21.08;6.03;;;18.00;99.90;;;;;;2077530;28;20496;-71
2023/07/03 04:48:29;;;;;;;19.42;5.20;;;18.00;99.90;;;;;;2075301;28;20450;-71
2023/07/03 04:49:31;;;;;;;15.00;4.78;;;18.10;99.90;;;;;;2075532;28;20144;-71
2023/07/03 04:50:32;;;;;;;16.75;5.05;;;18.10;99.90;;;;;;2076951;28;20101;-71
2023/07/03 04:51:32;;;;;;;14.80;4.90;;;18.20;99.90;;;;;;2077446;28;20611;-71
2023/07/03 04:52:33;;;;;;;19.83;6.30;;;18.20;99.90;;;;;;2075671;28;20095;-71
2023/07/03 04:53:40;;;;;;;19.50;5.35;;;18.20;99.90;;;;;;2076448;28;20026;-71
2023/07/03 04:54:41;;;;;;;19.80;5.35;;;18.30;99.90;;;;;;2076292;28;20068;-71
2023/07/03 04:55:42;;;;;;;12.65;4.43;;;18.40;99.90;;;;;;2075572;28;20575;-71
2023/07/03 04:56:44;;;;;;;12.35;4.50;;;18.40;99.90;;;;;;2075206;28;20422;-71
2023/07/03 04:57:46;;;;;;;20.63;6.38;;;18.50;99.90;;;;;;2076943;28;20128;-71
2023/07/03 04:58:48;;;;;;;16.65;4.78;;;18.50;99.90;;;;;;2076632;28;20129;-71
2023/07/03 04:59:49;;;;;;;18.08;5.03;;;18.60;99.90;;;;;;2076099;28;20030;-71
2023/07/03 05:00:49;;;;;;;16.17;5.60;;;18.70;99.90;;;;;;2075556;28;20026;-71
2023/07/03 05:01:50;;;;;;;18.70;5.40;;;18.70;99.90;;;;;;2076514;28;20025;-71
2023/07/03 05:02:53;;;;;;;17.08;4.63;;;18.80;99.90;;;;;;2077976;28;20033;-71
2023/07/03 05:03:54;;;;;;;15.75;5.03;;;18.80;99.90;;;;;;2077941;28;20021;-71
2023/07/03 05:04:54;;;;;;;13.77;4.75;;;18.90;99.90;;;;;;2078138;28;20037;-71
2023/07/03 05:05:55;;;;;;;17.98;6.15;;;19.00;99.90;;;;;;2075212;28;20106;-71
2023/07/03 05:06:55;;;;;;;17.83;5.53;;;19.00;99.90;;;;;;2076296;28;20064;-71
2023/07/03 05:07:56;;;;;;;16.27;5.43;;;19.10;99.90;;;;;;2076515;28;20034;-71
2023/07/03 05:08:56;;;;;;;24.05;6.13;;;19.20;99.90;;;;;;2075202;28;20032;-71
2023/07/03 05:09:57;;;;;;;12.13;4.15;;;19.20;99.70;;;;;;2076062;28;20057;-71
2023/07/03 05:10:59;;;;;;;16.85;5.18;;;19.30;98.80;;;;;;2078090;28;20067;-71
2023/07/03 05:12:00;;;;;;;20.58;5.50;;;19.40;99.00;;;;;;2076619;28;20029;-71
2023/07/03 05:13:00;;;;;;;18.02;5.78;;;19.40;98.60;;;;;;2076054;28;20036;-72
2023/07/03 05:14:01;;;;;;;19.00;5.68;;;19.50;98.60;;;;;;2078488;28;20035;-72
2023/07/03 05:15:03;;;;;;;21.15;6.07;;;19.60;98.10;;;;;;2075609;28;20030;-72
2023/07/03 05:16:04;;;;;;;19.08;5.45;;;19.60;98.20;;;;;;2076133;28;20366;-72
2023/07/03 05:17:05;;;;;;;13.18;4.75;;;19.70;98.10;;;;;;2076977;28;20099;-72
2023/07/03 05:18:05;;;;;;;20.23;6.22;;;19.80;98.30;;;;;;2076035;28;20057;-72